Time,TemperatureF,DewpointF,PressureIn,WindDirection,WindDirectionDegrees,WindSpeedMPH,WindSpeedGustMPH,Humidity,HourlyPrecipIn,Conditions,Clouds,dailyrainin,SoftwareType,DateUTC
2013-02-01 00:00:00,34.8,27.0,30.07,WSW,250,2.0,2.0,73,0.00,,,0.00,WeatherCatV1.11B39,2013-02-01 05:00:00,
2013-02-01 00:05:00,34.5,27.1,30.06,WSW,250,0.0,0.0,74,0.00,,,0.00,WeatherCatV1.11B39,2013-02-01 05:05:00,
2013-02-01 00:10:00,34.2,26.8,30.06,WSW,250,0.0,0.0,74,0.00,,,0.00,WeatherCatV1.11B39,2013-02-01 05:10:00,
2013-02-01 00:15:00,33.9,27.1,30.06,WSW,250,0.0,0.0,76,0.00,,,0.00,WeatherCatV1.11B39,2013-02-01 05:15:00,
2013-02-01 00:20:00,33.5,27.4,30.06,WSW,250,0.0,0.0,78,0.00,,,0.00,WeatherCatV1.11B39,2013-02-01 05:20:00,
2013-02-01 00:25:00,33.2,26.1,30.06,WSW,250,0.0,0.0,75,0.00,,,0.00,WeatherCatV1.11B39,2013-02-01 05:25:00,
2013-02-01 00:30:00,33.0,27.2,30.06,WSW,250,0.0,0.0,79,0.00,,,0.00,WeatherCatV1.11B39,2013-02-01 05:30:00,
2013-02-01 00:35:00,32.6,27.4,30.06,WSW,250,2.0,3.0,81,0.00,,,0.00,WeatherCatV1.11B39,2013-02-01 05:35:00,
2013-02-01 00:40:00,32.3,26.8,30.06,WSW,250,0.0,0.0,80,0.00,,,0.00,WeatherCatV1.11B39,2013-02-01 05:40:00,
2013-02-01 00:45:00,32.2,27.0,30.06,WSW,250,0.0,0.0,81,0.00,,,0.00,WeatherCatV1.11B39,2013-02-01 05:45:00,
2013-02-01 00:50:00,32.1,26.9,30.06,WSW,250,0.0,0.0,81,0.00,,,0.00,WeatherCatV1.11B39,2013-02-01 05:50:00,
2013-02-01 00:55:00,31.9,26.1,30.06,WSW,250,0.0,0.0,79,0.00,,,0.00,WeatherCatV1.11B39,2013-02-01 05:55:00,
2013-02-01 01:00:00,31.8,26.0,30.06,WSW,250,0.0,0.0,79,0.00,,,0.00,WeatherCatV1.11B39,2013-02-01 06:00:00,
2013-02-01 01:05:00,31.8,26.0,30.06,WSW,250,0.0,1.0,79,0.00,,,0.00,WeatherCatV1.11B39,2013-02-01 06:05:00,
2013-02-01 01:10:00,31.7,25.9,30.06,WSW,250,0.0,0.0,79,0.00,,,0.00,WeatherCatV1.11B39,2013-02-01 06:10:00,
2013-02-01 01:15:00,31.7,26.2,30.06,WSW,250,0.0,0.0,80,0.00,,,0.00,WeatherCatV1.11B39,2013-02-01 06:15:00,
2013-02-01 01:20:00,31.6,26.2,30.06,WSW,250,0.0,0.0,80,0.00,,,0.00,WeatherCatV1.11B39,2013-02-01 06:20:00,
2013-02-01 01:25:00,31.5,26.1,30.06,WSW,250,0.0,0.0,80,0.00,,,0.00,WeatherCatV1.11B39,2013-02-01 06:25:00,
2013-02-01 01:30:00,31.3,26.2,30.06,WSW,250,0.0,0.0,81,0.00,,,0.00,WeatherCatV1.11B39,2013-02-01 06:30:00,
2013-02-01 01:35:00,31.4,26.3,30.05,WSW,250,0.0,0.0,81,0.00,,,0.00,WeatherCatV1.11B39,2013-02-01 06:35:00,
2013-02-01 01:40:00,31.5,26.4,30.05,WSW,250,0.0,0.0,81,0.00,,,0.00,WeatherCatV1.11B39,2013-02-01 06:40:00,
2013-02-01 01:45:00,31.5,26.7,30.05,WSW,250,0.0,0.0,82,0.00,,,0.00,WeatherCatV1.11B39,2013-02-01 06:45:00,
2013-02-01 01:50:00,31.7,27.1,30.04,WSW,250,0.0,0.0,83,0.00,,,0.00,WeatherCatV1.11B39,2013-02-01 06:50:00,
2013-02-01 01:55:00,31.7,27.1,30.04,WSW,250,0.0,0.0,83,0.00,,,0.00,WeatherCatV1.11B39,2013-02-01 06:55:00,
2013-02-01 02:00:00,31.7,27.4,30.04,WSW,250,0.0,0.0,84,0.00,,,0.00,WeatherCatV1.11B39,2013-02-01 07:00:00,
2013-02-01 02:05:00,31.7,27.7,30.05,WSW,250,0.0,0.0,85,0.00,,,0.00,WeatherCatV1.11B39,2013-02-01 07:05:00,
2013-02-01 02:10:00,31.8,26.9,30.05,WSW,250,0.0,0.0,82,0.00,,,0.00,WeatherCatV1.11B39,2013-02-01 07:10:00,
2013-02-01 02:15:00,32.1,27.5,30.05,WSW,250,0.0,0.0,83,0.00,,,0.00,WeatherCatV1.11B39,2013-02-01 07:15:00,
2013-02-01 02:20:00,32.4,27.5,30.04,WSW,250,0.0,0.0,82,0.00,,,0.00,WeatherCatV1.11B39,2013-02-01 07:20:00,
2013-02-01 02:25:00,32.7,27.8,30.05,WSW,250,0.0,0.0,82,0.00,,,0.00,WeatherCatV1.11B39,2013-02-01 07:25:00,
2013-02-01 02:30:00,33.0,27.2,30.06,SW,234,0.0,2.0,79,0.00,,,0.00,WeatherCatV1.11B39,2013-02-01 07:30:00,
2013-02-01 02:35:00,33.4,27.3,30.05,SSE,150,2.0,4.0,78,0.00,,,0.00,WeatherCatV1.11B39,2013-02-01 07:35:00,
2013-02-01 02:40:00,33.9,27.5,30.06,SSE,150,0.0,0.0,77,0.00,,,0.00,WeatherCatV1.11B39,2013-02-01 07:40:00,
2013-02-01 02:45:00,34.3,28.2,30.06,SSE,152,2.0,2.0,78,0.00,,,0.00,WeatherCatV1.11B39,2013-02-01 07:45:00,
2013-02-01 02:50:00,34.4,28.0,30.05,SSE,152,0.0,0.0,77,0.00,,,0.00,WeatherCatV1.11B39,2013-02-01 07:50:00,
2013-02-01 02:55:00,34.4,28.3,30.05,SSE,152,1.0,2.0,78,0.00,,,0.00,WeatherCatV1.11B39,2013-02-01 07:55:00,
2013-02-01 03:00:00,34.9,28.1,30.04,SSE,152,0.0,5.0,76,0.00,,,0.00,WeatherCatV1.11B39,2013-02-01 08:00:00,
2013-02-01 03:05:00,35.4,28.3,30.04,SSE,162,0.0,5.0,75,0.00,,,0.00,WeatherCatV1.11B39,2013-02-01 08:05:00,
2013-02-01 03:10:00,36.8,28.3,30.04,SW,230,2.0,11.0,71,0.00,,,0.00,WeatherCatV1.11B39,2013-02-01 08:10:00,
2013-02-01 03:14:00,38.0,28.7,30.03,South,190,2.0,6.0,69,0.00,,,0.00,WeatherCatV1.11B39,2013-02-01 08:14:00,
2013-02-01 03:19:00,38.8,28.8,30.03,South,184,8.0,9.0,67,0.00,,,0.00,WeatherCatV1.11B39,2013-02-01 08:19:00,
2013-02-01 03:24:00,39.6,28.8,30.03,WSW,254,5.0,7.0,65,0.00,,,0.00,WeatherCatV1.11B39,2013-02-01 08:24:00,
2013-02-01 03:29:00,40.3,28.7,30.03,SSW,196,4.0,10.0,63,0.00,,,0.00,WeatherCatV1.11B39,2013-02-01 08:29:00,
2013-02-01 03:34:00,40.6,28.6,30.03,SSW,202,6.0,8.0,62,0.00,,,0.00,WeatherCatV1.11B39,2013-02-01 08:34:00,
2013-02-01 03:39:00,40.8,28.8,30.03,West,275,6.0,12.0,62,0.00,,,0.00,WeatherCatV1.11B39,2013-02-01 08:39:00,
2013-02-01 03:44:00,41.0,28.6,30.03,SSE,159,2.0,17.0,61,0.00,,,0.00,WeatherCatV1.11B39,2013-02-01 08:44:00,
2013-02-01 03:49:00,41.0,29.0,30.02,WNW,289,5.0,7.0,62,0.00,,,0.00,WeatherCatV1.11B39,2013-02-01 08:49:00,
2013-02-01 03:54:00,41.0,29.0,30.02,SW,225,2.0,5.0,62,0.00,,,0.00,WeatherCatV1.11B39,2013-02-01 08:54:00,
2013-02-01 03:59:00,40.9,28.9,30.03,SW,220,3.0,8.0,62,0.00,,,0.00,WeatherCatV1.11B39,2013-02-01 08:59:00,
2013-02-01 04:04:00,40.9,28.9,30.02,West,271,7.0,7.0,62,0.00,,,0.00,WeatherCatV1.11B39,2013-02-01 09:04:00,
2013-02-01 04:09:00,40.9,28.9,30.02,WSW,246,13.0,14.0,62,0.00,,,0.00,WeatherCatV1.11B39,2013-02-01 09:09:00,
2013-02-01 04:14:00,41.0,29.0,30.02,WSW,254,12.0,14.0,62,0.00,,,0.00,WeatherCatV1.11B39,2013-02-01 09:14:00,
2013-02-01 04:19:00,40.9,29.3,30.02,West,279,9.0,10.0,63,0.00,,,0.00,WeatherCatV1.11B39,2013-02-01 09:19:00,
2013-02-01 04:24:00,40.7,29.1,30.02,West,260,11.0,18.0,63,0.00,,,0.00,WeatherCatV1.11B39,2013-02-01 09:24:00,
2013-02-01 04:29:00,40.7,29.1,30.02,WSW,241,10.0,14.0,63,0.00,,,0.00,WeatherCatV1.11B39,2013-02-01 09:29:00,
2013-02-01 04:34:00,40.5,29.3,30.02,SW,233,3.0,12.0,64,0.00,,,0.00,WeatherCatV1.11B39,2013-02-01 09:34:00,
2013-02-01 04:39:00,40.4,29.6,30.02,West,272,16.0,16.0,65,0.00,,,0.00,WeatherCatV1.11B39,2013-02-01 09:39:00,
2013-02-01 04:44:00,40.3,29.5,30.01,SSW,205,7.0,13.0,65,0.00,,,0.00,WeatherCatV1.11B39,2013-02-01 09:44:00,
2013-02-01 04:49:00,40.2,29.4,30.01,SW,232,6.0,8.0,65,0.00,,,0.00,WeatherCatV1.11B39,2013-02-01 09:49:00,
2013-02-01 04:54:00,40.2,29.8,30.02,West,260,8.0,12.0,66,0.00,,,0.00,WeatherCatV1.11B39,2013-02-01 09:54:00,
2013-02-01 04:59:00,40.3,29.9,30.02,SSW,197,5.0,14.0,66,0.00,,,0.00,WeatherCatV1.11B39,2013-02-01 09:59:00,
2013-02-01 05:04:00,40.5,30.4,30.02,SSW,192,5.0,15.0,67,0.00,,,0.00,WeatherCatV1.11B39,2013-02-01 10:04:00,
2013-02-01 05:09:00,40.5,30.0,30.02,SW,231,5.0,14.0,66,0.00,,,0.00,WeatherCatV1.11B39,2013-02-01 10:09:00,
2013-02-01 05:14:00,40.5,29.7,30.02,SW,221,4.0,13.0,65,0.00,,,0.00,WeatherCatV1.11B39,2013-02-01 10:14:00,
2013-02-01 05:19:00,40.6,28.2,30.02,SSW,205,8.0,17.0,61,0.00,,,0.00,WeatherCatV1.11B39,2013-02-01 10:19:00,
2013-02-01 05:24:00,40.6,27.4,30.02,NNW,342,6.0,18.0,59,0.00,,,0.00,WeatherCatV1.11B39,2013-02-01 10:24:00,
2013-02-01 05:29:00,40.5,27.3,30.02,West,262,7.0,18.0,59,0.00,,,0.00,WeatherCatV1.11B39,2013-02-01 10:29:00,
2013-02-01 05:34:00,40.5,27.7,30.02,West,280,6.0,8.0,60,0.00,,,0.00,WeatherCatV1.11B39,2013-02-01 10:34:00,
2013-02-01 05:39:00,40.4,28.4,30.03,WSW,243,5.0,9.0,62,0.00,,,0.00,WeatherCatV1.11B39,2013-02-01 10:39:00,
2013-02-01 05:44:00,40.3,28.7,30.04,West,272,6.0,9.0,63,0.00,,,0.00,WeatherCatV1.11B39,2013-02-01 10:44:00,
2013-02-01 05:49:00,39.8,30.5,30.05,WNW,293,16.0,19.0,69,0.00,,,0.00,WeatherCatV1.11B39,2013-02-01 10:49:00,
2013-02-01 05:54:00,38.8,29.9,30.06,WNW,291,26.0,29.0,70,0.00,,,0.00,WeatherCatV1.11B39,2013-02-01 10:54:00,
2013-02-01 05:59:00,37.9,29.4,30.06,WNW,300,12.0,21.0,71,0.00,,,0.00,WeatherCatV1.11B39,2013-02-01 10:59:00,
2013-02-01 06:04:00,37.2,28.3,30.07,West,270,8.0,19.0,70,0.00,,,0.00,WeatherCatV1.11B39,2013-02-01 11:04:00,
2013-02-01 06:09:00,36.8,28.3,30.07,WSW,257,6.0,20.0,71,0.00,,,0.00,WeatherCatV1.11B39,2013-02-01 11:09:00,
2013-02-01 06:14:00,36.3,26.8,30.07,SW,227,5.0,15.0,68,0.00,,,0.00,WeatherCatV1.11B39,2013-02-01 11:14:00,
2013-02-01 06:19:00,35.9,26.7,30.08,West,275,18.0,19.0,69,0.00,,,0.00,WeatherCatV1.11B39,2013-02-01 11:19:00,
2013-02-01 06:24:00,35.2,26.1,30.08,WNW,288,13.0,31.0,69,0.00,,,0.00,WeatherCatV1.11B39,2013-02-01 11:24:00,
2013-02-01 06:29:00,34.7,25.2,30.09,WNW,286,23.0,26.0,68,0.00,,,0.00,WeatherCatV1.11B39,2013-02-01 11:29:00,
2013-02-01 06:34:00,34.1,25.0,30.09,SW,227,13.0,23.0,69,0.00,,,0.00,WeatherCatV1.11B39,2013-02-01 11:34:00,
2013-02-01 06:39:00,33.8,24.4,30.10,West,259,8.0,27.0,68,0.00,,,0.00,WeatherCatV1.11B39,2013-02-01 11:39:00,
2013-02-01 06:44:00,33.6,23.8,30.10,West,259,6.0,14.0,67,0.00,,,0.00,WeatherCatV1.11B39,2013-02-01 11:44:00,
2013-02-01 06:49:00,33.3,21.7,30.10,WNW,287,11.0,21.0,62,0.00,,,0.00,WeatherCatV1.11B39,2013-02-01 11:49:00,
2013-02-01 06:54:00,32.9,17.2,30.11,WSW,250,12.0,37.0,52,0.00,,,0.00,WeatherCatV1.11B39,2013-02-01 11:54:00,
2013-02-01 06:59:00,32.4,14.9,30.12,SW,228,10.0,32.0,48,0.00,,,0.00,WeatherCatV1.11B39,2013-02-01 11:59:00,
2013-02-01 07:04:00,32.2,14.3,30.11,WNW,290,12.0,18.0,47,0.00,,,0.00,WeatherCatV1.11B39,2013-02-01 12:04:00,
2013-02-01 07:09:00,31.9,15.4,30.11,WNW,300,7.0,13.0,50,0.00,,,0.00,WeatherCatV1.11B39,2013-02-01 12:09:00,
2013-02-01 07:14:00,31.7,16.1,30.12,SW,225,6.0,11.0,52,0.00,,,0.00,WeatherCatV1.11B39,2013-02-01 12:14:00,
2013-02-01 07:19:00,31.4,15.8,30.13,WNW,296,7.0,22.0,52,0.00,,,0.00,WeatherCatV1.11B39,2013-02-01 12:19:00,
2013-02-01 07:24:00,31.1,13.7,30.13,West,267,19.0,33.0,48,0.00,,,0.00,WeatherCatV1.11B39,2013-02-01 12:24:00,
2013-02-01 07:29:00,30.8,12.5,30.13,NW,315,20.0,29.0,46,0.00,,,0.00,WeatherCatV1.11B39,2013-02-01 12:29:00,
2013-02-01 07:34:00,30.4,13.1,30.14,West,273,9.0,14.0,48,0.00,,,0.00,WeatherCatV1.11B39,2013-02-01 12:34:00,
2013-02-01 07:39:00,30.2,11.9,30.15,West,260,19.0,25.0,46,0.00,,,0.00,WeatherCatV1.11B39,2013-02-01 12:39:00,
2013-02-01 07:44:00,29.9,12.1,30.15,WNW,283,15.0,23.0,47,0.00,,,0.00,WeatherCatV1.11B39,2013-02-01 12:44:00,
2013-02-01 07:49:00,29.7,12.9,30.15,WSW,252,8.0,25.0,49,0.00,,,0.00,WeatherCatV1.11B39,2013-02-01 12:49:00,
2013-02-01 07:54:00,29.5,13.2,30.15,South,189,13.0,15.0,50,0.00,,,0.00,WeatherCatV1.11B39,2013-02-01 12:54:00,
2013-02-01 07:59:00,29.4,13.1,30.15,WSW,244,12.0,19.0,50,0.00,,,0.00,WeatherCatV1.11B39,2013-02-01 12:59:00,
2013-02-01 08:04:00,29.3,13.4,30.16,SW,227,7.0,18.0,51,0.00,,,0.00,WeatherCatV1.11B39,2013-02-01 13:04:00,
2013-02-01 08:09:00,29.2,13.8,30.16,West,273,20.0,20.0,52,0.00,,,0.00,WeatherCatV1.11B39,2013-02-01 13:09:00,
2013-02-01 08:14:00,29.1,13.7,30.17,West,274,12.0,19.0,52,0.00,,,0.00,WeatherCatV1.11B39,2013-02-01 13:14:00,
2013-02-01 08:18:00,29.0,14.0,30.17,West,269,12.0,20.0,53,0.00,,,0.00,WeatherCatV1.11B39,2013-02-01 13:18:00,
2013-02-01 08:23:00,28.9,13.9,30.17,WSW,247,11.0,17.0,53,0.00,,,0.00,WeatherCatV1.11B39,2013-02-01 13:23:00,
2013-02-01 08:28:00,29.0,14.5,30.18,WSW,256,7.0,17.0,54,0.00,,,0.00,WeatherCatV1.11B39,2013-02-01 13:28:00,
2013-02-01 08:33:00,29.0,14.5,30.18,SW,228,14.0,26.0,54,0.00,,,0.00,WeatherCatV1.11B39,2013-02-01 13:33:00,
2013-02-01 08:38:00,28.9,13.9,30.19,West,259,6.0,14.0,53,0.00,,,0.00,WeatherCatV1.11B39,2013-02-01 13:38:00,
2013-02-01 08:43:00,28.9,13.9,30.19,WNW,296,13.0,16.0,53,0.00,,,0.00,WeatherCatV1.11B39,2013-02-01 13:43:00,
2013-02-01 08:48:00,28.8,13.9,30.19,SW,229,15.0,15.0,53,0.00,,,0.00,WeatherCatV1.11B39,2013-02-01 13:48:00,
2013-02-01 08:53:00,28.8,13.0,30.19,SE,142,4.0,10.0,51,0.00,,,0.00,WeatherCatV1.11B39,2013-02-01 13:53:00,
2013-02-01 08:58:00,28.9,13.1,30.20,WSW,252,8.0,14.0,51,0.00,,,0.00,WeatherCatV1.11B39,2013-02-01 13:58:00,
2013-02-01 09:03:00,28.8,12.5,30.20,West,274,8.0,11.0,50,0.00,,,0.00,WeatherCatV1.11B39,2013-02-01 14:03:00,
2013-02-01 09:08:00,28.8,12.5,30.21,WSW,238,5.0,13.0,50,0.00,,,0.00,WeatherCatV1.11B39,2013-02-01 14:08:00,
2013-02-01 09:13:00,28.8,13.0,30.21,SSE,164,2.0,12.0,51,0.00,,,0.00,WeatherCatV1.11B39,2013-02-01 14:13:00,
2013-02-01 09:18:00,28.9,12.2,30.21,South,189,7.0,17.0,49,0.00,,,0.00,WeatherCatV1.11B39,2013-02-01 14:18:00,
2013-02-01 09:23:00,29.1,13.7,30.22,SW,217,4.0,7.0,52,0.00,,,0.00,WeatherCatV1.11B39,2013-02-01 14:23:00,
2013-02-01 09:28:00,29.1,12.4,30.22,WSW,238,3.0,10.0,49,0.00,,,0.00,WeatherCatV1.11B39,2013-02-01 14:28:00,
2013-02-01 09:33:00,29.1,12.8,30.22,WSW,257,8.0,12.0,50,0.00,,,0.00,WeatherCatV1.11B39,2013-02-01 14:33:00,
2013-02-01 09:38:00,29.2,12.9,30.23,SSE,158,4.0,7.0,50,0.00,,,0.00,WeatherCatV1.11B39,2013-02-01 14:38:00,
2013-02-01 09:43:00,29.4,13.1,30.23,West,272,0.0,5.0,50,0.00,,,0.00,WeatherCatV1.11B39,2013-02-01 14:43:00,
2013-02-01 09:48:00,29.7,12.4,30.23,SSW,213,5.0,10.0,48,0.00,,,0.00,WeatherCatV1.11B39,2013-02-01 14:48:00,
2013-02-01 09:53:00,29.9,12.1,30.23,SW,227,5.0,13.0,47,0.00,,,0.00,WeatherCatV1.11B39,2013-02-01 14:53:00,
2013-02-01 09:58:00,30.1,11.4,30.23,SW,236,11.0,23.0,45,0.00,,,0.00,WeatherCatV1.11B39,2013-02-01 14:58:00,
2013-02-01 10:03:00,30.0,11.3,30.24,West,281,8.0,11.0,45,0.00,,,0.00,WeatherCatV1.11B39,2013-02-01 15:03:00,
2013-02-01 10:08:00,30.0,11.3,30.24,West,261,4.0,11.0,45,0.00,,,0.00,WeatherCatV1.11B39,2013-02-01 15:08:00,
2013-02-01 10:13:00,30.0,10.8,30.24,NW,309,14.0,18.0,44,0.00,,,0.00,WeatherCatV1.11B39,2013-02-01 15:13:00,
2013-02-01 10:18:00,30.0,10.2,30.25,WSW,257,6.0,14.0,43,0.00,,,0.00,WeatherCatV1.11B39,2013-02-01 15:18:00,
2013-02-01 10:23:00,30.2,10.4,30.25,WSW,242,10.0,11.0,43,0.00,,,0.00,WeatherCatV1.11B39,2013-02-01 15:23:00,
2013-02-01 10:28:00,30.5,8.5,30.25,West,262,15.0,18.0,39,0.00,,,0.00,WeatherCatV1.11B39,2013-02-01 15:28:00,
2013-02-01 10:33:00,30.6,8.0,30.26,SSW,205,6.0,10.0,38,0.00,,,0.00,WeatherCatV1.11B39,2013-02-01 15:33:00,
2013-02-01 10:38:00,30.6,8.6,30.26,SSW,210,5.0,17.0,39,0.00,,,0.00,WeatherCatV1.11B39,2013-02-01 15:38:00,
2013-02-01 10:43:00,30.7,8.1,30.26,West,277,20.0,20.0,38,0.00,,,0.00,WeatherCatV1.11B39,2013-02-01 15:43:00,
2013-02-01 10:48:00,30.7,8.7,30.27,West,279,7.0,17.0,39,0.00,,,0.00,WeatherCatV1.11B39,2013-02-01 15:48:00,
2013-02-01 10:53:00,30.6,8.0,30.26,WNW,285,9.0,12.0,38,0.00,,,0.00,WeatherCatV1.11B39,2013-02-01 15:53:00,
2013-02-01 10:58:00,30.6,6.2,30.27,West,276,13.0,24.0,35,0.00,,,0.00,WeatherCatV1.11B39,2013-02-01 15:58:00,
2013-02-01 11:03:00,31.0,8.4,30.27,WSW,247,8.0,16.0,38,0.00,,,0.00,WeatherCatV1.11B39,2013-02-01 16:03:00,
2013-02-01 11:08:00,31.2,7.4,30.27,WSW,255,14.0,20.0,36,0.00,,,0.00,WeatherCatV1.11B39,2013-02-01 16:08:00,
2013-02-01 11:13:00,30.9,6.5,30.27,WSW,255,15.0,23.0,35,0.00,,,0.00,WeatherCatV1.11B39,2013-02-01 16:13:00,
2013-02-01 11:18:00,31.1,7.9,30.27,West,279,11.0,15.0,37,0.00,,,0.00,WeatherCatV1.11B39,2013-02-01 16:18:00,
2013-02-01 11:23:00,31.2,6.8,30.27,WNW,289,9.0,18.0,35,0.00,,,0.00,WeatherCatV1.11B39,2013-02-01 16:23:00,
2013-02-01 11:28:00,31.6,8.9,30.27,SW,226,5.0,8.0,38,0.00,,,0.00,WeatherCatV1.11B39,2013-02-01 16:28:00,
2013-02-01 11:33:00,31.6,7.1,30.27,SSE,166,4.0,12.0,35,0.00,,,0.00,WeatherCatV1.11B39,2013-02-01 16:33:00,
2013-02-01 11:38:00,31.8,7.3,30.27,SW,227,12.0,16.0,35,0.00,,,0.00,WeatherCatV1.11B39,2013-02-01 16:38:00,
2013-02-01 11:43:00,31.8,8.5,30.27,SW,234,5.0,13.0,37,0.00,,,0.00,WeatherCatV1.11B39,2013-02-01 16:43:00,
2013-02-01 11:48:00,32.1,6.3,30.27,West,271,13.0,19.0,33,0.00,,,0.00,WeatherCatV1.11B39,2013-02-01 16:48:00,
2013-02-01 11:53:00,32.5,7.3,30.27,West,275,15.0,17.0,34,0.00,,,0.00,WeatherCatV1.11B39,2013-02-01 16:53:00,
2013-02-01 11:58:00,32.2,6.4,30.27,NW,310,5.0,14.0,33,0.00,,,0.00,WeatherCatV1.11B39,2013-02-01 16:58:00,
2013-02-01 12:03:00,32.2,8.3,30.27,West,279,11.0,13.0,36,0.00,,,0.00,WeatherCatV1.11B39,2013-02-01 17:03:00,
2013-02-01 12:08:00,32.3,6.5,30.26,SSW,213,2.0,12.0,33,0.00,,,0.00,WeatherCatV1.11B39,2013-02-01 17:08:00,
2013-02-01 12:13:00,32.4,7.2,30.26,South,169,9.0,9.0,34,0.00,,,0.00,WeatherCatV1.11B39,2013-02-01 17:13:00,
2013-02-01 12:18:00,32.9,10.7,30.26,SW,233,13.0,16.0,39,0.00,,,0.00,WeatherCatV1.11B39,2013-02-01 17:18:00,
2013-02-01 12:23:00,32.8,7.6,30.27,NW,309,11.0,14.0,34,0.00,,,0.00,WeatherCatV1.11B39,2013-02-01 17:23:00,
2013-02-01 12:28:00,33.2,8.5,30.27,West,279,4.0,11.0,35,0.00,,,0.00,WeatherCatV1.11B39,2013-02-01 17:28:00,
2013-02-01 12:33:00,33.4,8.7,30.27,SW,229,8.0,14.0,35,0.00,,,0.00,WeatherCatV1.11B39,2013-02-01 17:33:00,
2013-02-01 12:38:00,33.5,7.5,30.27,SSW,202,9.0,14.0,33,0.00,,,0.00,WeatherCatV1.11B39,2013-02-01 17:38:00,
2013-02-01 12:43:00,33.7,9.0,30.27,SSW,194,8.0,13.0,35,0.00,,,0.00,WeatherCatV1.11B39,2013-02-01 17:43:00,
2013-02-01 12:48:00,33.9,7.2,30.26,SSW,196,5.0,17.0,32,0.00,,,0.00,WeatherCatV1.11B39,2013-02-01 17:48:00,
2013-02-01 12:53:00,34.1,6.7,30.27,SW,224,5.0,12.0,31,0.00,,,0.00,WeatherCatV1.11B39,2013-02-01 17:53:00,
2013-02-01 12:58:00,34.6,8.5,30.27,WNW,289,9.0,18.0,33,0.00,,,0.00,WeatherCatV1.11B39,2013-02-01 17:58:00,
2013-02-01 13:03:00,34.8,8.7,30.26,WNW,283,7.0,14.0,33,0.00,,,0.00,WeatherCatV1.11B39,2013-02-01 18:03:00,
2013-02-01 13:08:00,34.7,7.2,30.26,SW,231,3.0,9.0,31,0.00,,,0.00,WeatherCatV1.11B39,2013-02-01 18:08:00,
2013-02-01 13:13:00,34.6,7.8,30.26,WNW,283,5.0,16.0,32,0.00,,,0.00,WeatherCatV1.11B39,2013-02-01 18:13:00,
2013-02-01 13:17:00,34.8,8.0,30.26,WNW,286,5.0,17.0,32,0.00,,,0.00,WeatherCatV1.11B39,2013-02-01 18:17:00,
2013-02-01 13:22:00,35.3,7.0,30.26,SW,232,7.0,14.0,30,0.00,,,0.00,WeatherCatV1.11B39,2013-02-01 18:22:00,
2013-02-01 13:27:00,35.3,7.0,30.26,WNW,293,14.0,16.0,30,0.00,,,0.00,WeatherCatV1.11B39,2013-02-01 18:27:00,
2013-02-01 13:32:00,35.2,7.6,30.26,WSW,246,6.0,10.0,31,0.00,,,0.00,WeatherCatV1.11B39,2013-02-01 18:32:00,
2013-02-01 13:37:00,35.5,5.7,30.25,West,263,6.0,10.0,28,0.00,,,0.00,WeatherCatV1.11B39,2013-02-01 18:37:00,
2013-02-01 13:42:00,35.8,8.9,30.25,SW,224,7.0,7.0,32,0.00,,,0.00,WeatherCatV1.11B39,2013-02-01 18:42:00,
2013-02-01 13:47:00,35.8,5.9,30.25,SSW,211,8.0,12.0,28,0.00,,,0.00,WeatherCatV1.11B39,2013-02-01 18:47:00,
2013-02-01 13:52:00,35.7,6.6,30.24,SW,229,8.0,11.0,29,0.00,,,0.00,WeatherCatV1.11B39,2013-02-01 18:52:00,
2013-02-01 13:57:00,35.8,6.7,30.24,WSW,238,10.0,19.0,29,0.00,,,0.00,WeatherCatV1.11B39,2013-02-01 18:57:00,
2013-02-01 14:02:00,36.0,6.1,30.24,West,263,14.0,15.0,28,0.00,,,0.00,WeatherCatV1.11B39,2013-02-01 19:02:00,
2013-02-01 14:07:00,35.9,6.0,30.24,SSW,199,9.0,12.0,28,0.00,,,0.00,WeatherCatV1.11B39,2013-02-01 19:07:00,
2013-02-01 14:12:00,36.0,7.6,30.24,WNW,284,12.0,13.0,30,0.00,,,0.00,WeatherCatV1.11B39,2013-02-01 19:12:00,
2013-02-01 14:17:00,36.5,4.9,30.24,West,274,11.0,16.0,26,0.00,,,0.00,WeatherCatV1.11B39,2013-02-01 19:17:00,
2013-02-01 14:22:00,36.6,7.4,30.24,WSW,251,4.0,10.0,29,0.00,,,0.00,WeatherCatV1.11B39,2013-02-01 19:22:00,
2013-02-01 14:27:00,36.9,5.3,30.25,West,281,11.0,14.0,26,0.00,,,0.00,WeatherCatV1.11B39,2013-02-01 19:27:00,
2013-02-01 14:32:00,36.5,5.7,30.25,West,263,8.0,13.0,27,0.00,,,0.00,WeatherCatV1.11B39,2013-02-01 19:32:00,
2013-02-01 14:37:00,36.7,5.9,30.24,West,281,7.0,12.0,27,0.00,,,0.00,WeatherCatV1.11B39,2013-02-01 19:37:00,
2013-02-01 14:42:00,37.3,5.6,30.25,West,264,6.0,18.0,26,0.00,,,0.00,WeatherCatV1.11B39,2013-02-01 19:42:00,
2013-02-01 14:47:00,37.2,5.5,30.25,SW,223,12.0,14.0,26,0.00,,,0.00,WeatherCatV1.11B39,2013-02-01 19:47:00,
2013-02-01 14:52:00,36.8,5.2,30.25,West,277,7.0,13.0,26,0.00,,,0.00,WeatherCatV1.11B39,2013-02-01 19:52:00,
2013-02-01 14:57:00,37.1,5.4,30.25,SSW,211,9.0,9.0,26,0.00,,,0.00,WeatherCatV1.11B39,2013-02-01 19:57:00,
2013-02-01 15:02:00,37.5,5.8,30.26,SSW,201,13.0,14.0,26,0.00,,,0.00,WeatherCatV1.11B39,2013-02-01 20:02:00,
2013-02-01 15:07:00,37.2,5.5,30.25,WNW,295,12.0,15.0,26,0.00,,,0.00,WeatherCatV1.11B39,2013-02-01 20:07:00,
2013-02-01 15:12:00,37.0,5.3,30.26,WNW,292,7.0,15.0,26,0.00,,,0.00,WeatherCatV1.11B39,2013-02-01 20:12:00,
2013-02-01 15:17:00,37.1,6.2,30.25,West,261,3.0,8.0,27,0.00,,,0.00,WeatherCatV1.11B39,2013-02-01 20:17:00,
2013-02-01 15:22:00,37.5,8.2,30.25,WSW,250,4.0,8.0,29,0.00,,,0.00,WeatherCatV1.11B39,2013-02-01 20:22:00,
2013-02-01 15:27:00,37.6,5.9,30.25,SSW,210,11.0,13.0,26,0.00,,,0.00,WeatherCatV1.11B39,2013-02-01 20:27:00,
2013-02-01 15:32:00,37.4,5.7,30.25,WNW,290,7.0,8.0,26,0.00,,,0.00,WeatherCatV1.11B39,2013-02-01 20:32:00,
2013-02-01 15:37:00,37.2,5.5,30.25,SW,226,6.0,13.0,26,0.00,,,0.00,WeatherCatV1.11B39,2013-02-01 20:37:00,
2013-02-01 15:42:00,37.1,4.6,30.25,West,276,14.0,15.0,25,0.00,,,0.00,WeatherCatV1.11B39,2013-02-01 20:42:00,
2013-02-01 15:47:00,37.0,3.6,30.25,WSW,252,13.0,17.0,24,0.00,,,0.00,WeatherCatV1.11B39,2013-02-01 20:47:00,
2013-02-01 15:52:00,36.9,3.5,30.25,WSW,258,10.0,14.0,24,0.00,,,0.00,WeatherCatV1.11B39,2013-02-01 20:52:00,
2013-02-01 15:57:00,36.9,2.6,30.25,WSW,254,10.0,10.0,23,0.00,,,0.00,WeatherCatV1.11B39,2013-02-01 20:57:00,
2013-02-01 16:02:00,36.9,3.5,30.26,SSW,193,6.0,13.0,24,0.00,,,0.00,WeatherCatV1.11B39,2013-02-01 21:02:00,
2013-02-01 16:07:00,36.9,2.6,30.26,NW,304,13.0,21.0,23,0.00,,,0.00,WeatherCatV1.11B39,2013-02-01 21:07:00,
2013-02-01 16:12:00,36.7,2.4,30.26,WSW,252,4.0,13.0,23,0.00,,,0.00,WeatherCatV1.11B39,2013-02-01 21:12:00,
2013-02-01 16:17:00,36.7,2.4,30.26,West,279,15.0,15.0,23,0.00,,,0.00,WeatherCatV1.11B39,2013-02-01 21:17:00,
2013-02-01 16:22:00,36.5,3.2,30.26,West,271,15.0,15.0,24,0.00,,,0.00,WeatherCatV1.11B39,2013-02-01 21:22:00,
2013-02-01 16:27:00,36.5,4.1,30.26,West,275,16.0,19.0,25,0.00,,,0.00,WeatherCatV1.11B39,2013-02-01 21:27:00,
2013-02-01 16:32:00,36.5,4.1,30.27,WNW,286,6.0,14.0,25,0.00,,,0.00,WeatherCatV1.11B39,2013-02-01 21:32:00,
2013-02-01 16:37:00,36.8,5.2,30.27,WSW,254,7.0,14.0,26,0.00,,,0.00,WeatherCatV1.11B39,2013-02-01 21:37:00,
2013-02-01 16:42:00,36.8,4.3,30.27,West,277,13.0,15.0,25,0.00,,,0.00,WeatherCatV1.11B39,2013-02-01 21:42:00,
2013-02-01 16:47:00,36.5,4.1,30.27,SW,214,11.0,11.0,25,0.00,,,0.00,WeatherCatV1.11B39,2013-02-01 21:47:00,
2013-02-01 16:52:00,36.2,3.8,30.27,NW,323,7.0,14.0,25,0.00,,,0.00,WeatherCatV1.11B39,2013-02-01 21:52:00,
2013-02-01 16:57:00,36.1,5.4,30.27,SW,225,14.0,15.0,27,0.00,,,0.00,WeatherCatV1.11B39,2013-02-01 21:57:00,
2013-02-01 17:02:00,36.0,4.5,30.27,WSW,244,7.0,7.0,26,0.00,,,0.00,WeatherCatV1.11B39,2013-02-01 22:02:00,
2013-02-01 17:07:00,35.8,5.1,30.27,WSW,248,6.0,8.0,27,0.00,,,0.00,WeatherCatV1.11B39,2013-02-01 22:07:00,
2013-02-01 17:12:00,35.6,5.0,30.27,SW,229,6.0,12.0,27,0.00,,,0.00,WeatherCatV1.11B39,2013-02-01 22:12:00,
2013-02-01 17:17:00,35.5,4.1,30.28,SSW,211,11.0,13.0,26,0.00,,,0.00,WeatherCatV1.11B39,2013-02-01 22:17:00,
2013-02-01 17:22:00,35.3,3.0,30.28,West,273,9.0,15.0,25,0.00,,,0.00,WeatherCatV1.11B39,2013-02-01 22:22:00,
2013-02-01 17:27:00,35.3,4.7,30.28,WNW,290,4.0,12.0,27,0.00,,,0.00,WeatherCatV1.11B39,2013-02-01 22:27:00,
2013-02-01 17:32:00,35.1,4.5,30.28,WSW,254,8.0,14.0,27,0.00,,,0.00,WeatherCatV1.11B39,2013-02-01 22:32:00,
2013-02-01 17:37:00,34.6,4.9,30.28,WSW,253,7.0,10.0,28,0.00,,,0.00,WeatherCatV1.11B39,2013-02-01 22:37:00,
2013-02-01 17:42:00,34.3,5.4,30.27,SW,230,3.0,14.0,29,0.00,,,0.00,WeatherCatV1.11B39,2013-02-01 22:42:00,
2013-02-01 17:47:00,34.1,4.4,30.27,SW,234,4.0,8.0,28,0.00,,,0.00,WeatherCatV1.11B39,2013-02-01 22:47:00,
2013-02-01 17:52:00,33.9,5.0,30.28,West,275,4.0,13.0,29,0.00,,,0.00,WeatherCatV1.11B39,2013-02-01 22:52:00,
2013-02-01 17:57:00,33.7,4.9,30.28,West,260,3.0,7.0,29,0.00,,,0.00,WeatherCatV1.11B39,2013-02-01 22:57:00,
2013-02-01 18:02:00,33.5,5.4,30.28,WSW,242,5.0,5.0,30,0.00,,,0.00,WeatherCatV1.11B39,2013-02-01 23:02:00,
2013-02-01 18:07:00,33.4,5.3,30.28,WSW,238,3.0,4.0,30,0.00,,,0.00,WeatherCatV1.11B39,2013-02-01 23:07:00,
2013-02-01 18:12:00,33.2,5.2,30.28,West,262,5.0,6.0,30,0.00,,,0.00,WeatherCatV1.11B39,2013-02-01 23:12:00,
2013-02-01 18:17:00,33.0,6.4,30.29,West,277,6.0,6.0,32,0.00,,,0.00,WeatherCatV1.11B39,2013-02-01 23:17:00,
2013-02-01 18:21:00,32.8,4.8,30.28,WSW,258,3.0,6.0,30,0.00,,,0.00,WeatherCatV1.11B39,2013-02-01 23:21:00,
2013-02-01 18:26:00,32.5,4.6,30.28,West,270,11.0,11.0,30,0.00,,,0.00,WeatherCatV1.11B39,2013-02-01 23:26:00,
2013-02-01 18:31:00,32.3,5.1,30.28,WSW,252,4.0,8.0,31,0.00,,,0.00,WeatherCatV1.11B39,2013-02-01 23:31:00,
2013-02-01 18:36:00,32.2,5.0,30.28,West,263,3.0,10.0,31,0.00,,,0.00,WeatherCatV1.11B39,2013-02-01 23:36:00,
2013-02-01 18:41:00,32.1,4.9,30.29,WSW,250,4.0,10.0,31,0.00,,,0.00,WeatherCatV1.11B39,2013-02-01 23:41:00,
2013-02-01 18:46:00,32.0,5.5,30.29,WSW,241,2.0,7.0,32,0.00,,,0.00,WeatherCatV1.11B39,2013-02-01 23:46:00,
2013-02-01 18:51:00,31.8,5.3,30.30,West,277,8.0,9.0,32,0.00,,,0.00,WeatherCatV1.11B39,2013-02-01 23:51:00,
2013-02-01 18:56:00,31.7,4.6,30.30,WSW,241,4.0,5.0,31,0.00,,,0.00,WeatherCatV1.11B39,2013-02-01 23:56:00,
2013-02-01 19:01:00,31.6,5.2,30.30,West,261,4.0,4.0,32,0.00,,,0.00,WeatherCatV1.11B39,2013-02-02 00:01:00,
2013-02-01 19:06:00,31.4,5.7,30.31,SSW,213,3.0,7.0,33,0.00,,,0.00,WeatherCatV1.11B39,2013-02-02 00:06:00,
2013-02-01 19:11:00,31.3,5.6,30.31,SW,220,3.0,4.0,33,0.00,,,0.00,WeatherCatV1.11B39,2013-02-02 00:11:00,
2013-02-01 19:16:00,31.2,5.5,30.30,SW,227,4.0,8.0,33,0.00,,,0.00,WeatherCatV1.11B39,2013-02-02 00:16:00,
2013-02-01 19:21:00,31.1,6.0,30.31,WSW,242,6.0,7.0,34,0.00,,,0.00,WeatherCatV1.11B39,2013-02-02 00:21:00,
2013-02-01 19:26:00,31.0,6.6,30.31,SW,219,3.0,5.0,35,0.00,,,0.00,WeatherCatV1.11B39,2013-02-02 00:26:00,
2013-02-01 19:31:00,30.8,6.4,30.31,SW,235,4.0,5.0,35,0.00,,,0.00,WeatherCatV1.11B39,2013-02-02 00:31:00,
2013-02-01 19:36:00,30.9,6.5,30.30,SW,232,5.0,7.0,35,0.00,,,0.00,WeatherCatV1.11B39,2013-02-02 00:36:00,
2013-02-01 19:41:00,30.8,7.0,30.30,SW,223,6.0,7.0,36,0.00,,,0.00,WeatherCatV1.11B39,2013-02-02 00:41:00,
2013-02-01 19:46:00,30.8,7.0,30.30,SW,221,4.0,10.0,36,0.00,,,0.00,WeatherCatV1.11B39,2013-02-02 00:46:00,
2013-02-01 19:51:00,30.7,6.9,30.30,WSW,253,3.0,7.0,36,0.00,,,0.00,WeatherCatV1.11B39,2013-02-02 00:51:00,
2013-02-01 19:56:00,30.6,6.2,30.31,SW,227,3.0,6.0,35,0.00,,,0.00,WeatherCatV1.11B39,2013-02-02 00:56:00,
2013-02-01 20:01:00,30.5,6.1,30.31,SW,232,1.0,4.0,35,0.00,,,0.00,WeatherCatV1.11B39,2013-02-02 01:01:00,
2013-02-01 20:06:00,30.4,6.1,30.31,SSW,202,2.0,5.0,35,0.00,,,0.00,WeatherCatV1.11B39,2013-02-02 01:06:00,
2013-02-01 20:11:00,30.3,7.2,30.31,West,265,2.0,3.0,37,0.00,,,0.00,WeatherCatV1.11B39,2013-02-02 01:11:00,
2013-02-01 20:16:00,30.2,7.1,30.31,West,260,3.0,6.0,37,0.00,,,0.00,WeatherCatV1.11B39,2013-02-02 01:16:00,
2013-02-01 20:21:00,30.1,7.6,30.31,WSW,246,0.0,4.0,38,0.00,,,0.00,WeatherCatV1.11B39,2013-02-02 01:21:00,
2013-02-01 20:26:00,29.9,6.8,30.32,WSW,246,2.0,3.0,37,0.00,,,0.00,WeatherCatV1.11B39,2013-02-02 01:26:00,
2013-02-01 20:31:00,29.7,6.7,30.32,SSW,208,0.0,3.0,37,0.00,,,0.00,WeatherCatV1.11B39,2013-02-02 01:31:00,
2013-02-01 20:36:00,29.6,7.1,30.32,SSW,208,2.0,2.0,38,0.00,,,0.00,WeatherCatV1.11B39,2013-02-02 01:36:00,
2013-02-01 20:41:00,29.5,8.2,30.32,SSW,213,2.0,4.0,40,0.00,,,0.00,WeatherCatV1.11B39,2013-02-02 01:41:00,
2013-02-01 20:46:00,29.3,9.1,30.32,SSW,213,2.0,3.0,42,0.00,,,0.00,WeatherCatV1.11B39,2013-02-02 01:46:00,
2013-02-01 20:51:00,29.2,7.9,30.32,SSW,213,2.0,3.0,40,0.00,,,0.00,WeatherCatV1.11B39,2013-02-02 01:51:00,
2013-02-01 20:56:00,29.2,7.9,30.31,SSW,213,1.0,3.0,40,0.00,,,0.00,WeatherCatV1.11B39,2013-02-02 01:56:00,
2013-02-01 21:01:00,29.0,10.4,30.31,SSW,213,1.0,2.0,45,0.00,,,0.00,WeatherCatV1.11B39,2013-02-02 02:01:00,
2013-02-01 21:06:00,28.9,8.7,30.31,SSW,213,0.0,1.0,42,0.00,,,0.00,WeatherCatV1.11B39,2013-02-02 02:06:00,
2013-02-01 21:11:00,28.7,11.5,30.31,SSW,213,0.0,0.0,48,0.00,,,0.00,WeatherCatV1.11B39,2013-02-02 02:11:00,
2013-02-01 21:16:00,28.5,9.9,30.31,SSW,213,0.0,0.0,45,0.00,,,0.00,WeatherCatV1.11B39,2013-02-02 02:16:00,
2013-02-01 21:21:00,28.3,12.1,30.31,SSW,213,0.0,2.0,50,0.00,,,0.00,WeatherCatV1.11B39,2013-02-02 02:21:00,
2013-02-01 21:26:00,28.0,10.9,30.31,SSW,213,0.0,0.0,48,0.00,,,0.00,WeatherCatV1.11B39,2013-02-02 02:26:00,
2013-02-01 21:31:00,27.9,9.8,30.31,SSW,213,0.0,0.0,46,0.00,,,0.00,WeatherCatV1.11B39,2013-02-02 02:31:00,
2013-02-01 21:36:00,27.8,11.6,30.31,SSW,213,1.0,2.0,50,0.00,,,0.00,WeatherCatV1.11B39,2013-02-02 02:36:00,
2013-02-01 21:41:00,27.6,12.7,30.31,SSW,213,2.0,2.0,53,0.00,,,0.00,WeatherCatV1.11B39,2013-02-02 02:41:00,
2013-02-01 21:46:00,27.4,10.8,30.31,SSW,213,2.0,3.0,49,0.00,,,0.00,WeatherCatV1.11B39,2013-02-02 02:46:00,
2013-02-01 21:51:00,27.4,9.4,30.31,SSW,213,2.0,2.0,46,0.00,,,0.00,WeatherCatV1.11B39,2013-02-02 02:51:00,
2013-02-01 21:56:00,27.5,9.0,30.31,SSW,213,1.0,2.0,45,0.00,,,0.00,WeatherCatV1.11B39,2013-02-02 02:56:00,
2013-02-01 22:01:00,27.5,13.1,30.31,SSW,213,0.0,0.0,54,0.00,,,0.00,WeatherCatV1.11B39,2013-02-02 03:01:00,
2013-02-01 22:06:00,27.3,13.3,30.31,SSW,213,1.0,2.0,55,0.00,,,0.00,WeatherCatV1.11B39,2013-02-02 03:06:00,
2013-02-01 22:11:00,27.0,13.4,30.32,SSW,213,2.0,2.0,56,0.00,,,0.00,WeatherCatV1.11B39,2013-02-02 03:11:00,
2013-02-01 22:16:00,26.7,10.1,30.31,SSW,213,0.0,0.0,49,0.00,,,0.00,WeatherCatV1.11B39,2013-02-02 03:16:00,
2013-02-01 22:21:00,26.6,10.5,30.32,SSW,213,0.0,0.0,50,0.00,,,0.00,WeatherCatV1.11B39,2013-02-02 03:21:00,
2013-02-01 22:26:00,26.5,11.7,30.32,SSW,213,0.0,0.0,53,0.00,,,0.00,WeatherCatV1.11B39,2013-02-02 03:26:00,
2013-02-01 22:31:00,26.4,9.9,30.32,SSW,213,0.0,0.0,49,0.00,,,0.00,WeatherCatV1.11B39,2013-02-02 03:31:00,
2013-02-01 22:36:00,26.4,9.9,30.31,SSW,213,0.0,0.0,49,0.00,,,0.00,WeatherCatV1.11B39,2013-02-02 03:36:00,
2013-02-01 22:41:00,26.5,9.5,30.32,SSW,213,0.0,0.0,48,0.00,,,0.00,WeatherCatV1.11B39,2013-02-02 03:41:00,
2013-02-01 22:46:00,26.5,10.0,30.32,SSW,213,0.0,0.0,49,0.00,,,0.00,WeatherCatV1.11B39,2013-02-02 03:46:00,
2013-02-01 22:51:00,26.5,9.5,30.33,SSW,213,2.0,2.0,48,0.00,,,0.00,WeatherCatV1.11B39,2013-02-02 03:51:00,
2013-02-01 22:56:00,26.5,14.1,30.33,SSW,213,2.0,2.0,59,0.00,,,0.00,WeatherCatV1.11B39,2013-02-02 03:56:00,
2013-02-01 23:01:00,26.3,13.9,30.32,SSW,213,1.0,2.0,59,0.00,,,0.00,WeatherCatV1.11B39,2013-02-02 04:01:00,
2013-02-01 23:06:00,26.1,14.1,30.32,SSW,213,2.0,3.0,60,0.00,,,0.00,WeatherCatV1.11B39,2013-02-02 04:06:00,
2013-02-01 23:11:00,25.9,12.0,30.32,SSW,213,0.0,2.0,55,0.00,,,0.00,WeatherCatV1.11B39,2013-02-02 04:11:00,
2013-02-01 23:16:00,25.9,12.4,30.33,SSW,213,0.0,0.0,56,0.00,,,0.00,WeatherCatV1.11B39,2013-02-02 04:16:00,
2013-02-01 23:21:00,25.8,11.1,30.33,SSW,213,0.0,1.0,53,0.00,,,0.00,WeatherCatV1.11B39,2013-02-02 04:21:00,
2013-02-01 23:26:00,25.7,11.4,30.33,SSW,213,0.0,0.0,54,0.00,,,0.00,WeatherCatV1.11B39,2013-02-02 04:26:00,
2013-02-01 23:30:00,25.6,13.3,30.33,SSW,213,0.0,0.0,59,0.00,,,0.00,WeatherCatV1.11B39,2013-02-02 04:30:00,
2013-02-01 23:35:00,25.5,12.4,30.32,SSW,213,2.0,2.0,57,0.00,,,0.00,WeatherCatV1.11B39,2013-02-02 04:35:00,
2013-02-01 23:40:00,25.6,10.9,30.32,SSW,213,0.0,0.0,53,0.00,,,0.00,WeatherCatV1.11B39,2013-02-02 04:40:00,
2013-02-01 23:45:00,25.7,14.1,30.31,SSW,213,0.0,2.0,61,0.00,,,0.00,WeatherCatV1.11B39,2013-02-02 04:45:00,
2013-02-01 23:50:00,25.6,15.5,30.31,SSW,213,0.0,0.0,65,0.00,,,0.00,WeatherCatV1.11B39,2013-02-02 04:50:00,
2013-02-01 23:55:00,25.3,15.6,30.31,SSW,213,0.0,0.0,66,0.00,,,0.00,WeatherCatV1.11B39,2013-02-02 04:55:00,